Time;durP1;ratioP1;P1;durP2;ratioP2;P2;SDS_P1;SDS_P2;PMS_P1;PMS_P2;Temp;Humidity;BMP_temperature;BMP_pressure;BME280_temperature;BME280_humidity;BME280_pressure;Samples;Min_cycle;Max_cycle;Signal;HPM_P1;HPM_P2
2021/06/02 00:01:52;;;;;;;;;;;11.50;99.90;;;;;;5039177;28;19979;-72
2021/06/02 00:04:20;;;;;;;;;;;11.40;99.90;;;;;;5047118;28;19929;-72
2021/06/02 00:06:50;;;;;;;;;;;11.40;99.90;;;;;;5050218;28;19925;-73
2021/06/02 00:09:19;;;;;;;;;;;11.30;99.90;;;;;;5061171;28;19936;-72
2021/06/02 00:11:48;;;;;;;;;;;11.30;99.90;;;;;;5047693;28;19943;-72
2021/06/02 00:17:11;;;;;;;;;;;11.20;99.90;;;;;;5043491;28;19929;-72
2021/06/02 00:19:38;;;;;;;;;;;11.20;99.90;;;;;;5051545;28;19978;-73
2021/06/02 00:22:07;;;;;;;;;;;11.20;99.90;;;;;;5043802;28;19928;-72
2021/06/02 00:24:35;;;;;;;;;;;11.20;99.90;;;;;;5046272;28;19951;-72
2021/06/02 00:27:06;;;;;;;;;;;11.10;99.90;;;;;;5042456;28;19926;-73
2021/06/02 00:30:01;;;;;;;;;;;11.00;99.90;;;;;;5040614;28;19925;-72
2021/06/02 00:32:30;;;;;;;;;;;11.00;99.90;;;;;;5048252;28;19925;-72
2021/06/02 00:34:58;;;;;;;;;;;11.00;99.90;;;;;;5040585;28;19932;-72
2021/06/02 00:37:28;;;;;;;;;;;11.00;99.90;;;;;;5050142;28;19929;-72
2021/06/02 00:39:57;;;;;;;;;;;11.00;99.90;;;;;;5044210;28;19925;-72
2021/06/02 00:42:30;;;;;;;;;;;10.90;99.90;;;;;;5045815;28;20409;-72
2021/06/02 00:44:58;;;;;;;;;;;10.90;99.90;;;;;;5040128;28;19961;-73
2021/06/02 00:47:26;;;;;;;;;;;10.90;99.90;;;;;;5047420;28;19924;-72
2021/06/02 00:49:54;;;;;;;;;;;10.90;99.90;;;;;;5054014;28;19925;-72
2021/06/02 00:52:22;;;;;;;;;;;10.90;99.90;;;;;;5054727;28;19925;-72
2021/06/02 00:54:52;;;;;;;;;;;10.90;99.90;;;;;;5045541;28;19925;-72
2021/06/02 00:57:21;;;;;;;;;;;10.90;99.90;;;;;;5053075;28;20039;-72
2021/06/02 00:59:55;;;;;;;;;;;10.90;99.90;;;;;;5064495;28;20389;-72
2021/06/02 01:02:23;;;;;;;;;;;10.80;99.90;;;;;;5046015;28;19913;-72
2021/06/02 01:04:52;;;;;;;;;;;10.70;99.90;;;;;;5076486;28;19925;-73
2021/06/02 01:07:21;;;;;;;;;;;10.70;99.90;;;;;;5053869;28;19956;-72
2021/06/02 01:09:51;;;;;;;;;;;10.70;99.90;;;;;;5054770;28;19925;-72
2021/06/02 01:12:21;;;;;;;;;;;10.70;99.90;;;;;;5056327;28;19925;-72
2021/06/02 01:14:51;;;;;;;;;;;10.70;99.90;;;;;;5058163;28;19925;-72
2021/06/02 01:24:42;;;;;;;;;;;10.70;99.90;;;;;;5038528;28;20154;-73
2021/06/02 01:27:38;;;;;;;;;;;10.70;99.90;;;;;;5058461;28;19925;-72
2021/06/02 01:30:08;;;;;;;;;;;10.70;99.90;;;;;;5068921;28;19947;-72
2021/06/02 01:32:49;;;;;;;;;;;10.60;99.90;;;;;;5068334;28;19916;-72
2021/06/02 01:35:36;;;;;;;;;;;10.70;99.90;;;;;;5058887;28;19909;-72
2021/06/02 01:38:28;;;;;;;;;;;10.70;99.90;;;;;;5072836;28;19924;-72
2021/06/02 01:41:18;;;;;;;;;;;10.70;99.90;;;;;;5054378;28;19925;-72
2021/06/02 01:44:05;;;;;;;;;;;10.60;99.90;;;;;;5063348;28;19975;-72
2021/06/02 01:46:45;;;;;;;;;;;10.60;99.90;;;;;;5076539;28;19921;-72
2021/06/02 01:49:20;;;;;;;;;;;10.50;99.90;;;;;;5067855;28;19952;-72
2021/06/02 01:52:22;;;;;;;;;;;10.50;99.90;;;;;;5070286;28;19925;-72
2021/06/02 01:55:08;;;;;;;;;;;10.50;99.90;;;;;;5031593;28;19968;-72
2021/06/02 01:58:10;;;;;;;;;;;10.60;99.90;;;;;;5037232;28;19925;-72
2021/06/02 02:00:55;;;;;;;;;;;10.50;99.90;;;;;;4982470;28;20632;-72
2021/06/02 02:03:46;;;;;;;;;;;10.50;99.90;;;;;;4979819;28;19930;-72
2021/06/02 02:06:32;;;;;;;;;;;10.50;99.90;;;;;;4980870;28;19976;-72
2021/06/02 02:09:04;;;;;;;;;;;10.50;99.90;;;;;;5045193;28;19925;-72
2021/06/02 02:11:34;;;;;;;;;;;10.40;99.90;;;;;;5036034;28;19978;-72
2021/06/02 02:17:29;;;;;;;;;;;10.40;99.90;;;;;;5050764;28;20401;-72
2021/06/02 02:20:01;;;;;;;;;;;10.40;99.90;;;;;;5039320;28;19926;-72
2021/06/02 02:22:45;;;;;;;;;;;10.30;99.90;;;;;;5039376;28;19925;-72
2021/06/02 02:25:18;;;;;;;;;;;10.30;99.90;;;;;;5041833;28;19931;-72
2021/06/02 02:27:51;;;;;;;;;;;10.30;99.90;;;;;;5039671;28;19982;-72
2021/06/02 02:30:29;;;;;;;;;;;10.30;99.90;;;;;;5035876;28;19925;-72
2021/06/02 02:33:02;;;;;;;;;;;10.30;99.90;;;;;;5041586;28;19995;-72
2021/06/02 02:35:42;;;;;;;;;;;10.30;99.90;;;;;;5041110;28;19932;-72
2021/06/02 02:38:35;;;;;;;;;;;10.20;99.90;;;;;;5041125;28;19928;-73
2021/06/02 02:41:09;;;;;;;;;;;10.20;99.90;;;;;;5045124;28;19968;-72
2021/06/02 02:43:40;;;;;;;;;;;10.10;99.90;;;;;;5040011;28;20013;-72
2021/06/02 02:46:10;;;;;;;;;;;10.10;99.90;;;;;;5038925;28;19953;-72
2021/06/02 02:48:47;;;;;;;;;;;10.10;99.90;;;;;;5039298;28;19925;-72
2021/06/02 02:51:27;;;;;;;;;;;10.10;99.90;;;;;;5040801;28;19975;-72
2021/06/02 02:54:03;;;;;;;;;;;10.10;99.90;;;;;;5042435;28;19925;-72
2021/06/02 02:56:37;;;;;;;;;;;10.10;99.90;;;;;;5040931;28;19925;-72
2021/06/02 02:59:11;;;;;;;;;;;10.00;99.90;;;;;;5042203;28;19963;-73
2021/06/02 03:01:39;;;;;;;;;;;9.90;99.90;;;;;;5038343;28;19925;-72
2021/06/02 03:04:09;;;;;;;;;;;9.90;99.90;;;;;;5056585;28;19956;-72
2021/06/02 03:06:40;;;;;;;;;;;9.90;99.90;;;;;;5044174;28;20308;-72
2021/06/02 03:09:15;;;;;;;;;;;9.90;99.90;;;;;;5046256;28;19932;-72
2021/06/02 03:11:49;;;;;;;;;;;9.90;99.90;;;;;;5046626;28;20263;-72
2021/06/02 03:14:42;;;;;;;;;;;9.80;99.90;;;;;;5054609;28;20218;-72
2021/06/02 03:17:35;;;;;;;;;;;9.80;99.90;;;;;;5061433;28;19939;-72
2021/06/02 03:20:18;;;;;;;;;;;9.80;99.90;;;;;;5059117;28;20296;-72
2021/06/02 03:23:07;;;;;;;;;;;9.80;99.90;;;;;;5048523;28;20455;-72
2021/06/02 03:25:38;;;;;;;;;;;9.80;99.90;;;;;;5047932;28;19981;-72
2021/06/02 03:28:15;;;;;;;;;;;9.90;99.90;;;;;;5051780;28;19929;-72
2021/06/02 03:30:49;;;;;;;;;;;9.90;99.90;;;;;;5048032;28;19925;-72
2021/06/02 03:33:26;;;;;;;;;;;9.90;99.90;;;;;;5064459;28;19925;-72
2021/06/02 03:35:59;;;;;;;;;;;9.80;99.90;;;;;;5048202;28;19948;-72
2021/06/02 03:38:52;;;;;;;;;;;9.70;99.90;;;;;;5048954;28;19931;-72
2021/06/02 03:41:30;;;;;;;;;;;9.70;99.90;;;;;;5041651;28;19925;-72
2021/06/02 03:44:07;;;;;;;;;;;9.70;99.90;;;;;;5054168;28;19951;-72
2021/06/02 03:46:49;;;;;;;;;;;9.70;99.90;;;;;;5042835;28;19929;-72
2021/06/02 03:49:20;;;;;;;;;;;9.70;99.90;;;;;;5041689;28;20081;-72
2021/06/02 03:51:54;;;;;;;;;;;9.60;99.90;;;;;;5062677;28;19925;-72
2021/06/02 03:54:26;;;;;;;;;;;9.60;99.90;;;;;;5045010;28;19932;-72
2021/06/02 03:57:02;;;;;;;;;;;9.70;99.90;;;;;;5036018;28;19929;-72
2021/06/02 03:59:35;;;;;;;;;;;9.60;99.90;;;;;;5044397;28;19929;-72
2021/06/02 04:02:07;;;;;;;;;;;9.70;99.90;;;;;;5068692;28;19925;-72
2021/06/02 04:04:38;;;;;;;;;;;9.70;99.90;;;;;;5072165;28;19936;-72
2021/06/02 04:07:07;;;;;;;;;;;9.70;99.90;;;;;;5049453;28;20357;-72
2021/06/02 04:12:39;;;;;;;;;;;9.70;99.90;;;;;;5047398;28;19979;-72
2021/06/02 04:15:08;;;;;;;;;;;9.70;99.90;;;;;;5036701;28;19963;-72
2021/06/02 04:17:40;;;;;;;;;;;9.80;99.90;;;;;;5042629;28;19929;-72
2021/06/02 04:20:08;;;;;;;;;;;9.80;99.90;;;;;;5054630;28;19925;-72
2021/06/02 04:22:39;;;;;;;;;;;9.80;99.90;;;;;;5050474;28;19925;-72
2021/06/02 04:25:09;;;;;;;;;;;9.80;99.90;;;;;;5044284;28;20300;-72
2021/06/02 04:27:44;;;;;;;;;;;9.80;99.90;;;;;;5046668;28;19929;-71
2021/06/02 04:30:14;;;;;;;;;;;9.90;99.90;;;;;;4997840;28;19925;-72
2021/06/02 04:32:42;;;;;;;;;;;9.90;99.90;;;;;;5053754;28;19999;-72
2021/06/02 04:35:13;;;;;;;;;;;10.00;99.90;;;;;;5055673;28;20020;-72
2021/06/02 04:37:42;;;;;;;;;;;10.00;99.90;;;;;;5054883;28;20019;-72
2021/06/02 04:40:10;;;;;;;;;;;10.10;99.90;;;;;;5026068;28;20598;-72
2021/06/02 04:42:41;;;;;;;;;;;10.10;99.90;;;;;;5018802;28;19971;-72
2021/06/02 04:48:03;;;;;;;;;;;10.30;99.90;;;;;;5018730;28;19930;-72
2021/06/02 04:50:33;;;;;;;;;;;10.40;99.90;;;;;;5021235;28;19925;-72
2021/06/02 04:53:21;;;;;;;;;;;10.40;99.90;;;;;;5032621;28;19960;-72
2021/06/02 04:56:07;;;;;;;;;;;10.50;99.90;;;;;;5016301;28;19926;-72
2021/06/02 04:58:50;;;;;;;;;;;10.70;99.90;;;;;;5008294;28;19980;-72
2021/06/02 05:01:37;;;;;;;;;;;10.80;99.90;;;;;;5018021;28;19933;-72
2021/06/02 05:04:35;;;;;;;;;;;10.80;99.90;;;;;;5017168;28;19949;-72
2021/06/02 05:07:17;;;;;;;;;;;10.80;99.90;;;;;;4977084;28;19957;-71
2021/06/02 05:10:11;;;;;;;;;;;10.80;99.90;;;;;;5031011;28;20392;-72
2021/06/02 05:12:58;;;;;;;;;;;10.90;99.90;;;;;;5042131;28;19929;-72
2021/06/02 05:15:41;;;;;;;;;;;10.90;99.90;;;;;;5036236;28;19928;-72
2021/06/02 05:18:27;;;;;;;;;;;10.90;99.90;;;;;;5046926;28;19929;-72
2021/06/02 05:24:08;;;;;;;;;;;11.00;99.90;;;;;;5041789;28;19925;-72
2021/06/02 05:27:00;;;;;;;;;;;11.10;99.90;;;;;;5039172;28;19929;-73
2021/06/02 05:29:43;;;;;;;;;;;11.20;99.90;;;;;;5035561;28;19925;-72
2021/06/02 05:32:24;;;;;;;;;;;11.30;99.90;;;;;;5052677;28;19925;-72
2021/06/02 05:34:56;;;;;;;;;;;11.40;99.90;;;;;;5032775;28;19928;-72
2021/06/02 05:37:46;;;;;;;;;;;11.60;99.90;;;;;;5045674;28;19939;-72
2021/06/02 05:40:30;;;;;;;;;;;11.70;99.90;;;;;;5040417;28;20403;-73
2021/06/02 05:43:17;;;;;;;;;;;12.00;99.90;;;;;;5036165;28;19926;-73
2021/06/02 05:46:09;;;;;;;;;;;12.20;99.90;;;;;;5033231;28;19925;-73
2021/06/02 05:48:50;;;;;;;;;;;12.40;99.90;;;;;;5044754;28;19929;-73
2021/06/02 05:51:32;;;;;;;;;;;12.50;99.90;;;;;;5019991;28;20289;-72
2021/06/02 05:54:20;;;;;;;;;;;12.80;99.90;;;;;;5053733;28;19925;-72
2021/06/02 05:57:15;;;;;;;;;;;13.10;99.90;;;;;;5039456;28;19925;-73
2021/06/02 05:59:55;;;;;;;;;;;13.40;99.90;;;;;;5046955;28;19925;-72
2021/06/02 06:02:43;;;;;;;;;;;13.80;99.90;;;;;;5036845;28;20262;-72
2021/06/02 06:05:16;;;;;;;;;;;14.00;99.90;;;;;;5034183;28;19925;-73
2021/06/02 06:08:02;;;;;;;;;;;14.30;99.90;;;;;;5033399;28;19949;-72
2021/06/02 06:10:40;;;;;;;;;;;14.50;99.90;;;;;;5035687;28;20305;-72
2021/06/02 06:13:22;;;;;;;;;;;14.80;99.90;;;;;;5039525;28;19964;-72
2021/06/02 06:16:14;;;;;;;;;;;15.00;99.90;;;;;;5045299;28;19982;-72
2021/06/02 06:18:55;;;;;;;;;;;15.10;99.90;;;;;;5034201;28;19932;-72
2021/06/02 06:21:39;;;;;;;;;;;15.10;99.90;;;;;;5033748;28;20634;-72
2021/06/02 06:24:08;;;;;;;;;;;15.20;99.90;;;;;;5051806;28;19924;-72
2021/06/02 06:26:38;;;;;;;;;;;15.20;99.90;;;;;;5038166;28;19929;-72
2021/06/02 06:29:09;;;;;;;;;;;15.30;99.90;;;;;;5042748;28;20542;-72
2021/06/02 06:31:38;;;;;;;;;;;15.40;99.90;;;;;;5046130;28;19939;-71
2021/06/02 06:34:09;;;;;;;;;;;15.60;99.90;;;;;;5032613;28;19968;-72
2021/06/02 06:36:41;;;;;;;;;;;15.70;99.90;;;;;;5042055;28;19925;-72
2021/06/02 06:39:15;;;;;;;;;;;15.50;99.90;;;;;;5042320;28;20364;-72
2021/06/02 06:41:44;;;;;;;;;;;15.50;99.90;;;;;;5043699;28;19925;-72
2021/06/02 06:44:12;;;;;;;;;;;15.70;99.90;;;;;;5037410;28;19929;-72
2021/06/02 06:46:40;;;;;;;;;;;15.80;99.90;;;;;;5042951;28;20003;-72
2021/06/02 06:49:10;;;;;;;;;;;16.00;99.90;;;;;;5045599;28;19964;-71
2021/06/02 06:51:40;;;;;;;;;;;16.30;99.90;;;;;;5038084;28;19936;-72
2021/06/02 06:54:10;;;;;;;;;;;16.90;99.90;;;;;;5034291;28;19925;-72
2021/06/02 06:56:38;;;;;;;;;;;17.50;99.90;;;;;;5039495;28;20700;-72
2021/06/02 06:59:07;;;;;;;;;;;18.30;98.30;;;;;;5043422;28;20066;-72
2021/06/02 07:01:37;;;;;;;;;;;19.50;96.00;;;;;;5039982;28;19929;-72
2021/06/02 07:04:07;;;;;;;;;;;20.60;93.10;;;;;;5040508;28;19929;-72
2021/06/02 07:06:37;;;;;;;;;;;20.40;91.10;;;;;;5038042;28;20337;-73
2021/06/02 07:09:06;;;;;;;;;;;20.40;90.90;;;;;;5045772;28;20361;-72
2021/06/02 07:11:39;;;;;;;;;;;20.50;91.10;;;;;;5038307;28;20349;-72
2021/06/02 07:14:09;;;;;;;;;;;20.40;90.80;;;;;;5037606;28;20264;-72
2021/06/02 07:19:32;;;;;;;;;;;20.20;92.20;;;;;;5043929;28;19979;-72
2021/06/02 07:22:10;;;;;;;;;;;21.00;90.50;;;;;;5040829;28;19928;-73
2021/06/02 07:24:38;;;;;;;;;;;22.40;87.00;;;;;;5040535;28;19925;-71
2021/06/02 07:27:06;;;;;;;;;;;23.50;83.00;;;;;;5037866;28;19936;-72
2021/06/02 07:30:01;;;;;;;;;;;23.80;81.10;;;;;;5039232;28;20044;-71
2021/06/02 07:32:28;;;;;;;;;;;24.70;75.40;;;;;;5042186;28;19980;-72
2021/06/02 07:34:56;;;;;;;;;;;24.30;72.80;;;;;;5041539;28;19929;-72
2021/06/02 07:37:26;;;;;;;;;;;24.60;71.90;;;;;;5038377;28;19951;-73
2021/06/02 07:40:18;;;;;;;;;;;27.00;65.60;;;;;;5044271;28;20384;-78
2021/06/02 07:42:46;;;;;;;;;;;26.50;63.60;;;;;;5024182;28;19931;-75
2021/06/02 07:45:16;;;;;;;;;;;27.40;60.00;;;;;;5046766;28;19926;-74
2021/06/02 07:47:44;;;;;;;;;;;26.90;59.10;;;;;;5037853;28;19926;-75
2021/06/02 07:50:12;;;;;;;;;;;27.60;57.20;;;;;;5037604;28;20496;-75
2021/06/02 07:52:42;;;;;;;;;;;27.90;55.70;;;;;;5053498;28;19991;-75
2021/06/02 07:55:10;;;;;;;;;;;29.00;54.00;;;;;;5036353;28;19929;-74
2021/06/02 07:57:38;;;;;;;;;;;28.90;48.90;;;;;;5044349;28;19980;-74
2021/06/02 08:00:08;;;;;;;;;;;30.00;48.20;;;;;;5035795;28;20348;-73
2021/06/02 08:02:38;;;;;;;;;;;28.70;46.50;;;;;;5041490;28;19947;-73
2021/06/02 08:05:06;;;;;;;;;;;27.00;45.30;;;;;;5050390;28;19984;-73
2021/06/02 08:07:40;;;;;;;;;;;25.80;48.50;;;;;;5057243;28;19944;-71
2021/06/02 08:10:10;;;;;;;;;;;26.80;46.20;;;;;;5053507;28;19929;-72
2021/06/02 08:12:38;;;;;;;;;;;26.40;46.20;;;;;;5048012;28;19994;-71
2021/06/02 08:15:08;;;;;;;;;;;26.90;45.50;;;;;;5045072;28;19925;-71
2021/06/02 08:17:36;;;;;;;;;;;27.40;44.30;;;;;;5041232;28;19979;-74
2021/06/02 08:20:05;;;;;;;;;;;26.90;43.00;;;;;;5041412;28;20395;-73
2021/06/02 08:22:33;;;;;;;;;;;28.50;42.20;;;;;;5049513;28;19992;-71
2021/06/02 08:25:02;;;;;;;;;;;27.20;42.50;;;;;;5041434;28;19924;-70
2021/06/02 08:53:57;;;;;;;;;;;27.10;42.00;;;;;;5110340;27;20270;-69
2021/06/02 08:56:24;;;;;;;;;;;27.80;41.80;;;;;;5083005;28;19967;-72
2021/06/02 09:01:45;;;;;;;;;;;27.70;41.10;;;;;;5090042;28;19978;-71
2021/06/02 09:04:14;;;;;;;;;;;28.40;40.90;;;;;;5084355;28;19999;-72
2021/06/02 09:06:44;;;;;;;;;;;28.60;39.80;;;;;;5092011;28;19925;-73
2021/06/02 09:09:14;;;;;;;;;;;29.20;39.00;;;;;;5098922;28;19924;-71
2021/06/02 09:11:43;;;;;;;;;;;28.80;40.10;;;;;;5104715;28;20399;-72
2021/06/02 09:14:22;;;;;;;;;;;28.50;38.70;;;;;;5124855;28;19928;-73
2021/06/02 09:16:56;;;;;;;;;;;28.50;39.50;;;;;;5097342;28;19925;-72
2021/06/02 09:19:31;;;;;;;;;;;30.20;39.90;;;;;;5089613;28;19925;-72
2021/06/02 09:22:06;;;;;;;;;;;31.60;35.70;;;;;;5081270;28;19928;-72
2021/06/02 09:24:46;;;;;;;;;;;30.30;36.80;;;;;;5088248;28;19924;-71
2021/06/02 09:27:14;;;;;;;;;;;30.20;37.30;;;;;;5074026;28;19924;-71
2021/06/02 09:29:49;;;;;;;;;;;30.80;36.50;;;;;;5110918;28;19925;-71
2021/06/02 09:32:18;;;;;;;;;;;29.70;36.70;;;;;;5081542;28;19935;-71
2021/06/02 09:34:46;;;;;;;;;;;27.70;39.50;;;;;;5082781;28;19936;-71
2021/06/02 09:37:14;;;;;;;;;;;26.30;41.80;;;;;;5079544;28;19979;-71
2021/06/02 09:40:06;;;;;;;;;;;25.20;43.00;;;;;;5108752;28;19932;-71
2021/06/02 09:42:45;;;;;;;;;;;24.90;44.50;;;;;;5093520;28;19977;-71
2021/06/02 09:45:14;;;;;;;;;;;24.80;44.40;;;;;;5084678;28;19970;-71
2021/06/02 09:47:43;;;;;;;;;;;24.40;44.80;;;;;;5088037;28;20402;-71
2021/06/02 09:50:13;;;;;;;;;;;23.90;46.20;;;;;;5079308;28;20046;-70
2021/06/02 09:52:44;;;;;;;;;;;24.10;47.80;;;;;;5105233;28;19932;-70
2021/06/02 09:55:12;;;;;;;;;;;24.00;45.10;;;;;;5084615;28;19948;-71
2021/06/02 09:57:41;;;;;;;;;;;24.00;46.30;;;;;;5092417;28;19944;-70
2021/06/02 10:00:10;;;;;;;;;;;23.70;45.70;;;;;;5090413;28;19934;-71
2021/06/02 10:02:43;;;;;;;;;;;23.70;45.80;;;;;;5091880;28;20010;-71
2021/06/02 10:05:12;;;;;;;;;;;24.30;45.60;;;;;;5110397;28;19929;-70
2021/06/02 10:07:44;;;;;;;;;;;24.40;45.40;;;;;;5079360;28;19929;-71
2021/06/02 10:10:13;;;;;;;;;;;24.60;47.00;;;;;;5114727;28;20300;-70
2021/06/02 10:12:56;;;;;;;;;;;24.50;44.10;;;;;;5089336;28;19932;-70
2021/06/02 10:15:28;;;;;;;;;;;24.00;41.30;;;;;;5101019;28;20293;-70
2021/06/02 10:17:56;;;;;;;;;;;23.70;43.20;;;;;;5080770;28;19925;-70
2021/06/02 10:20:24;;;;;;;;;;;23.70;44.80;;;;;;5080855;28;20023;-70
2021/06/02 10:22:53;;;;;;;;;;;24.60;45.40;;;;;;5073878;28;20576;-70
2021/06/02 10:25:23;;;;;;;;;;;25.00;43.60;;;;;;5067702;28;19925;-70
2021/06/02 10:27:54;;;;;;;;;;;25.50;43.30;;;;;;5069495;28;20024;-71
2021/06/02 10:30:24;;;;;;;;;;;26.60;42.10;;;;;;5071235;28;20388;-70
2021/06/02 10:32:54;;;;;;;;;;;27.20;40.10;;;;;;5067542;28;19982;-70
2021/06/02 10:35:22;;;;;;;;;;;28.20;39.40;;;;;;5074384;28;19931;-71
2021/06/02 10:37:50;;;;;;;;;;;27.00;40.20;;;;;;5069334;28;19924;-70
2021/06/02 10:40:20;;;;;;;;;;;27.00;41.00;;;;;;5072279;28;19931;-70
2021/06/02 10:42:57;;;;;;;;;;;26.10;40.80;;;;;;5071729;28;20308;-71
2021/06/02 10:45:27;;;;;;;;;;;25.30;42.40;;;;;;5069181;28;20011;-71
2021/06/02 10:47:56;;;;;;;;;;;24.90;42.20;;;;;;5071229;28;19978;-70
2021/06/02 10:50:32;;;;;;;;;;;24.70;43.60;;;;;;5069085;28;19978;-70
2021/06/02 10:53:00;;;;;;;;;;;24.30;43.70;;;;;;5073662;28;19925;-71
2021/06/02 10:55:32;;;;;;;;;;;24.20;44.20;;;;;;5064954;28;20257;-70
2021/06/02 10:58:18;;;;;;;;;;;24.00;44.50;;;;;;5066222;28;19959;-70
2021/06/02 11:00:46;;;;;;;;;;;24.20;45.00;;;;;;5070099;28;19931;-70
2021/06/02 11:03:17;;;;;;;;;;;24.70;45.30;;;;;;5063629;28;19929;-70
2021/06/02 11:09:01;;;;;;;;;;;24.70;42.10;;;;;;5082682;28;20522;-70
2021/06/02 11:11:32;;;;;;;;;;;24.60;41.60;;;;;;5061829;28;19925;-72
2021/06/02 11:14:20;;;;;;;;;;;24.90;43.30;;;;;;5029366;28;19979;-70
2021/06/02 11:17:13;;;;;;;;;;;25.30;42.50;;;;;;5010883;28;19983;-72
2021/06/02 11:20:08;;;;;;;;;;;25.00;39.50;;;;;;5008207;28;19937;-71
2021/06/02 11:22:39;;;;;;;;;;;24.50;39.90;;;;;;5011414;28;19932;-72
2021/06/02 11:25:20;;;;;;;;;;;24.80;40.80;;;;;;5025342;28;19949;-71
2021/06/02 11:27:48;;;;;;;;;;;24.80;41.00;;;;;;5025918;28;19930;-70
2021/06/02 11:30:17;;;;;;;;;;;25.80;39.80;;;;;;5027121;28;19992;-70
2021/06/02 11:33:02;;;;;;;;;;;25.70;37.60;;;;;;5030697;28;19921;-71
2021/06/02 11:36:08;;;;;;;;;;;25.30;37.90;;;;;;5024771;28;19945;-71
2021/06/02 11:38:37;;;;;;;;;;;25.20;39.30;;;;;;5025480;28;19926;-71
2021/06/02 11:41:29;;;;;;;;;;;24.90;39.90;;;;;;5019460;28;19990;-71
2021/06/02 11:44:00;;;;;;;;;;;25.20;42.10;;;;;;5033353;28;20389;-70
2021/06/02 11:46:49;;;;;;;;;;;25.20;41.70;;;;;;5029362;28;19929;-71
2021/06/02 11:49:23;;;;;;;;;;;25.00;41.20;;;;;;5034291;28;19963;-71
2021/06/02 11:51:52;;;;;;;;;;;24.70;40.40;;;;;;5032208;28;19926;-70
2021/06/02 11:54:21;;;;;;;;;;;24.80;41.00;;;;;;5034480;28;19926;-72
2021/06/02 11:56:49;;;;;;;;;;;25.00;41.50;;;;;;5048993;28;19944;-71
2021/06/02 11:59:16;;;;;;;;;;;25.00;39.10;;;;;;5028370;28;19929;-71
2021/06/02 12:01:44;;;;;;;;;;;25.00;39.20;;;;;;5024687;28;19993;-71
2021/06/02 12:04:12;;;;;;;;;;;25.20;40.30;;;;;;5034101;28;19932;-72
2021/06/02 12:06:42;;;;;;;;;;;25.30;40.40;;;;;;5051391;28;19921;-71
2021/06/02 12:09:11;;;;;;;;;;;25.30;40.50;;;;;;5018125;28;19925;-72
2021/06/02 12:11:39;;;;;;;;;;;24.90;39.00;;;;;;5055357;28;19989;-71
2021/06/02 12:20:06;;;;;;;;;;;24.90;39.40;;;;;;5033843;28;19972;-70
2021/06/02 12:22:35;;;;;;;;;;;25.00;40.70;;;;;;5055310;28;19925;-71
2021/06/02 12:25:08;;;;;;;;;;;24.80;39.50;;;;;;5055036;28;19967;-72
2021/06/02 12:27:40;;;;;;;;;;;24.70;40.00;;;;;;5031280;28;19996;-71
2021/06/02 12:30:09;;;;;;;;;;;24.90;40.00;;;;;;5026090;28;20042;-71
2021/06/02 12:32:50;;;;;;;;;;;24.90;39.40;;;;;;5012079;28;19926;-70
2021/06/02 12:35:26;;;;;;;;;;;24.70;39.20;;;;;;5016993;28;20361;-72
2021/06/02 12:41:04;;;;;;;;;;;24.80;39.70;;;;;;5014217;28;19926;-72
2021/06/02 12:43:38;;;;;;;;;;;24.70;39.40;;;;;;5030842;28;19972;-72
2021/06/02 12:46:08;;;;;;;;;;;24.60;40.10;;;;;;5007733;28;19948;-72
2021/06/02 12:48:36;;;;;;;;;;;24.70;39.80;;;;;;5010338;28;19949;-72
2021/06/02 12:51:05;;;;;;;;;;;24.80;41.10;;;;;;5011359;28;20308;-72
2021/06/02 12:53:38;;;;;;;;;;;24.60;40.50;;;;;;5009169;28;20255;-72
2021/06/02 12:56:08;;;;;;;;;;;24.70;40.30;;;;;;5006633;28;19925;-71
2021/06/02 12:58:36;;;;;;;;;;;24.70;40.20;;;;;;5011653;28;19926;-71
2021/06/02 13:01:05;;;;;;;;;;;24.90;40.70;;;;;;5006289;28;19961;-72
2021/06/02 13:03:33;;;;;;;;;;;25.10;42.00;;;;;;5007851;28;19925;-71
2021/06/02 13:06:01;;;;;;;;;;;25.10;40.20;;;;;;5031699;28;19930;-72
2021/06/02 13:08:37;;;;;;;;;;;25.10;40.40;;;;;;5035841;28;19930;-72
2021/06/02 13:11:06;;;;;;;;;;;25.30;41.10;;;;;;5009238;28;20020;-72
2021/06/02 13:13:35;;;;;;;;;;;25.30;40.30;;;;;;5006058;28;19925;-72
2021/06/02 13:16:07;;;;;;;;;;;25.00;41.60;;;;;;5010567;28;19929;-71
2021/06/02 13:18:35;;;;;;;;;;;25.10;42.70;;;;;;4994146;28;19926;-71
2021/06/02 13:21:10;;;;;;;;;;;25.20;43.10;;;;;;5010372;28;19926;-72
2021/06/02 13:23:41;;;;;;;;;;;25.40;44.90;;;;;;4989503;28;19930;-72
2021/06/02 13:26:10;;;;;;;;;;;25.30;41.80;;;;;;5015894;28;19934;-72
2021/06/02 13:28:43;;;;;;;;;;;25.20;42.00;;;;;;4996149;28;20345;-73
2021/06/02 13:31:12;;;;;;;;;;;25.30;43.00;;;;;;4999064;28;20008;-71
2021/06/02 13:33:46;;;;;;;;;;;25.40;42.70;;;;;;5009411;28;19925;-72
2021/06/02 13:36:14;;;;;;;;;;;25.20;42.00;;;;;;5007951;28;20270;-72
2021/06/02 13:38:42;;;;;;;;;;;25.40;43.30;;;;;;5006944;28;19934;-72
2021/06/02 13:41:20;;;;;;;;;;;25.20;42.00;;;;;;5007221;28;19925;-72
2021/06/02 13:43:49;;;;;;;;;;;25.10;41.20;;;;;;4996984;28;20494;-72
2021/06/02 13:46:23;;;;;;;;;;;25.00;40.30;;;;;;5005110;28;19925;-72
2021/06/02 13:48:51;;;;;;;;;;;25.20;41.60;;;;;;5009685;28;20106;-72
2021/06/02 13:51:21;;;;;;;;;;;25.30;42.00;;;;;;5009811;28;19925;-72
2021/06/02 13:54:10;;;;;;;;;;;25.30;40.30;;;;;;5012399;28;19925;-72
2021/06/02 13:57:00;;;;;;;;;;;25.50;40.30;;;;;;4997166;28;20120;-72
2021/06/02 13:59:44;;;;;;;;;;;25.60;40.50;;;;;;5010116;28;19930;-73
2021/06/02 14:02:13;;;;;;;;;;;25.10;38.90;;;;;;5014176;28;19934;-74
2021/06/02 14:04:42;;;;;;;;;;;25.20;40.50;;;;;;5030042;28;19963;-73
2021/06/02 14:07:11;;;;;;;;;;;25.30;40.40;;;;;;5013523;28;20000;-74
2021/06/02 14:09:40;;;;;;;;;;;25.40;39.90;;;;;;5005616;28;20310;-73
2021/06/02 14:12:09;;;;;;;;;;;25.40;40.20;;;;;;5011018;28;20373;-73
2021/06/02 14:14:37;;;;;;;;;;;25.60;41.30;;;;;;5011620;28;19932;-74
2021/06/02 14:17:07;;;;;;;;;;;25.60;41.30;;;;;;5012220;28;19926;-73
2021/06/02 14:20:00;;;;;;;;;;;25.50;41.20;;;;;;5013224;28;20312;-73
2021/06/02 14:22:29;;;;;;;;;;;25.60;41.60;;;;;;5012327;28;19980;-73
2021/06/02 14:24:57;;;;;;;;;;;25.60;41.00;;;;;;5012076;28;19959;-73
2021/06/02 14:27:24;;;;;;;;;;;26.00;41.20;;;;;;5011948;28;19929;-73
2021/06/02 14:29:52;;;;;;;;;;;26.20;39.30;;;;;;5009871;28;19926;-74
2021/06/02 14:32:22;;;;;;;;;;;26.40;40.50;;;;;;5023580;28;20021;-73
2021/06/02 14:34:51;;;;;;;;;;;26.40;40.20;;;;;;5005612;28;19926;-73
2021/06/02 14:37:18;;;;;;;;;;;26.20;38.80;;;;;;5005117;28;19933;-73
2021/06/02 14:39:51;;;;;;;;;;;26.00;39.00;;;;;;5012906;28;19925;-73
2021/06/02 14:42:19;;;;;;;;;;;25.90;39.00;;;;;;5011896;28;19976;-73
2021/06/02 14:44:47;;;;;;;;;;;25.70;39.00;;;;;;5008836;28;19933;-74
2021/06/02 14:47:15;;;;;;;;;;;25.70;39.90;;;;;;5013136;28;19953;-73
2021/06/02 14:49:44;;;;;;;;;;;25.70;41.70;;;;;;5009098;28;19930;-73
2021/06/02 14:52:12;;;;;;;;;;;25.60;41.00;;;;;;5014088;28;19930;-73
2021/06/02 14:54:40;;;;;;;;;;;25.60;41.20;;;;;;5040659;28;20350;-73
2021/06/02 14:57:08;;;;;;;;;;;25.40;39.90;;;;;;5014689;28;19929;-73
2021/06/02 14:59:36;;;;;;;;;;;25.50;40.60;;;;;;5011570;28;19926;-73
2021/06/02 15:02:06;;;;;;;;;;;25.70;41.10;;;;;;5008348;28;19925;-74
2021/06/02 15:04:33;;;;;;;;;;;25.60;39.60;;;;;;5015024;28;19925;-73
2021/06/02 15:07:02;;;;;;;;;;;25.40;38.80;;;;;;5013597;28;20373;-74
2021/06/02 15:09:30;;;;;;;;;;;25.40;39.10;;;;;;5030388;28;19930;-73
2021/06/02 15:11:59;;;;;;;;;;;25.50;39.90;;;;;;5014876;28;19965;-72
2021/06/02 15:14:27;;;;;;;;;;;25.40;37.90;;;;;;5013324;28;19953;-73
2021/06/02 15:16:56;;;;;;;;;;;25.60;39.40;;;;;;5014558;28;20016;-73
2021/06/02 15:19:25;;;;;;;;;;;25.70;39.90;;;;;;5029990;28;20016;-73
2021/06/02 15:21:52;;;;;;;;;;;25.60;39.60;;;;;;5025041;28;19926;-73
2021/06/02 15:24:22;;;;;;;;;;;25.40;38.90;;;;;;5013868;28;20377;-72
2021/06/02 15:26:50;;;;;;;;;;;25.40;39.00;;;;;;5023702;28;19933;-73
2021/06/02 15:29:39;;;;;;;;;;;25.50;40.20;;;;;;5010538;28;19934;-72
2021/06/02 15:32:07;;;;;;;;;;;25.70;39.20;;;;;;5001443;28;20576;-73
2021/06/02 15:34:35;;;;;;;;;;;25.80;37.30;;;;;;5008444;28;19933;-74
2021/06/02 15:37:04;;;;;;;;;;;25.50;38.10;;;;;;5007481;28;19925;-74
2021/06/02 15:39:33;;;;;;;;;;;25.40;37.60;;;;;;5015003;28;19925;-74
2021/06/02 15:42:02;;;;;;;;;;;25.40;37.80;;;;;;5009962;28;19925;-74
2021/06/02 15:44:41;;;;;;;;;;;25.40;37.20;;;;;;5010120;28;20297;-73
2021/06/02 15:47:09;;;;;;;;;;;25.40;37.70;;;;;;5017190;28;19984;-73
2021/06/02 15:49:37;;;;;;;;;;;25.50;37.50;;;;;;5007652;28;19960;-73
2021/06/02 15:52:06;;;;;;;;;;;25.40;38.20;;;;;;5002704;28;20247;-73
2021/06/02 15:54:36;;;;;;;;;;;25.30;38.00;;;;;;4994056;28;19929;-73
2021/06/02 15:57:05;;;;;;;;;;;25.30;38.90;;;;;;5008856;28;19932;-74
2021/06/02 15:59:34;;;;;;;;;;;25.30;38.50;;;;;;4988098;28;19968;-73
2021/06/02 16:02:03;;;;;;;;;;;25.20;38.40;;;;;;5003813;28;19950;-72
2021/06/02 16:04:31;;;;;;;;;;;25.30;38.60;;;;;;5022408;28;20028;-72